Big Bear Station Historical Data
Daily Summary for November 6, 2017 Units:  English    Metric   Both
« Previous Day
Next Day »
Daily Weekly Monthly Yearly Custom
  High: Low: Average:
Temperature: 53.1 °F 40.8 °F 45.7 °F
Dew Point: 41.1 °F 29.9 °F 37.7 °F
Humidity: 87 % 62 % 74 %
Wind Speed: 9.9 mph 0.0 mph 2.7 mph
Wind Gust: -999.0 mph - -
Wind:- - West
Pressure: 23.56 in 23.48 in -
Precipitation: 0.00 in    
Historical Graphs
 
 
Tabular Data for November 6, 2017
Time Temperature Dew Point Pressure Wind Wind Speed Wind Gust Humidity Rainfall Rate (Hourly)
00:14 40.8 °F 29.9 °F 23.51 in Calm   -999.0 mph 65 % 0 in
00:29 41.2 °F 31.4 °F 23.51 in NE 3.2 mph -999.0 mph 68 % 0 in
00:44 41.4 °F 32.7 °F 23.50 in ESE 1.1 mph -999.0 mph 71 % 0 in
00:59 41.9 °F 32.8 °F 23.50 in NW 2.2 mph -999.0 mph 70 % 0 in
01:15 41.7 °F 31.9 °F 23.50 in WNW 3.7 mph -999.0 mph 68 % 0 in
01:30 41.7 °F 31.5 °F 23.50 in NW 3.7 mph -999.0 mph 67 % 0 in
01:45 41.7 °F 32.3 °F 23.50 in WNW 2.2 mph -999.0 mph 69 % 0 in
02:00 41.5 °F 32.1 °F 23.50 in WNW 1.7 mph -999.0 mph 69 % 0 in
02:15 41.7 °F 31.9 °F 23.50 in Calm   -999.0 mph 68 % 0 in
02:31 41.7 °F 31.9 °F 23.49 in West 1.1 mph -999.0 mph 68 % 0 in
02:46 41.7 °F 31.9 °F 23.49 in WNW 4.2 mph -999.0 mph 68 % 0 in
03:01 41.5 °F 32.4 °F 23.49 in NW 3.2 mph -999.0 mph 70 % 0 in
03:16 41.5 °F 33.1 °F 23.48 in West 3.7 mph -999.0 mph 72 % 0 in
03:47 41.2 °F 32.5 °F 23.49 in NW 3.7 mph -999.0 mph 71 % 0 in
04:02 40.8 °F 31.8 °F 23.49 in NW 3.7 mph -999.0 mph 70 % 0 in
04:17 41.0 °F 33.0 °F 23.49 in North 2.2 mph -999.0 mph 73 % 0 in
04:32 41.7 °F 34.0 °F 23.50 in SSW 2.2 mph -999.0 mph 74 % 0 in
04:48 42.1 °F 34.1 °F 23.50 in SSE 3.2 mph -999.0 mph 73 % 0 in
05:03 42.3 °F 34.6 °F 23.50 in NW 2.7 mph -999.0 mph 74 % 0 in
05:18 42.1 °F 34.1 °F 23.50 in NW 3.2 mph -999.0 mph 73 % 0 in
05:33 42.6 °F 35.2 °F 23.50 in NW 3.2 mph -999.0 mph 75 % 0 in
05:48 42.1 °F 35.1 °F 23.50 in West 1.7 mph -999.0 mph 76 % 0 in
06:04 41.4 °F 34.1 °F 23.51 in NW 3.2 mph -999.0 mph 75 % 0 in
06:19 41.5 °F 34.8 °F 23.51 in NNW 2.2 mph -999.0 mph 77 % 0 in
06:35 42.1 °F 35.7 °F 23.52 in NNW 2.2 mph -999.0 mph 78 % 0 in
06:50 42.4 °F 35.7 °F 23.52 in WNW 1.1 mph -999.0 mph 77 % 0 in
07:05 43.5 °F 36.8 °F 23.52 in NNW 4.2 mph -999.0 mph 77 % 0 in
07:20 43.9 °F 36.8 °F 23.53 in NNW 9.9 mph -999.0 mph 76 % 0 in
07:35 44.8 °F 37.0 °F 23.54 in NNW 3.2 mph -999.0 mph 74 % 0 in
07:51 45.1 °F 37.0 °F 23.54 in NW 2.7 mph -999.0 mph 73 % 0 in
08:06 45.3 °F 37.2 °F 23.54 in WNW 4.2 mph -999.0 mph 73 % 0 in
08:21 45.9 °F 37.4 °F 23.55 in NW 3.2 mph -999.0 mph 72 % 0 in
08:36 46.2 °F 37.7 °F 23.54 in NW 3.7 mph -999.0 mph 72 % 0 in
08:52 46.2 °F 38.0 °F 23.54 in NNW 2.7 mph -999.0 mph 73 % 0 in
09:08 46.4 °F 37.9 °F 23.53 in WNW 4.7 mph -999.0 mph 72 % 0 in
09:23 47.5 °F 38.2 °F 23.54 in SSW 3.7 mph -999.0 mph 70 % 0 in
09:38 47.5 °F 38.2 °F 23.54 in NW 2.7 mph -999.0 mph 70 % 0 in
09:54 48.2 °F 38.5 °F 23.54 in North 4.2 mph -999.0 mph 69 % 0 in
10:09 49.6 °F 39.5 °F 23.54 in WNW 3.2 mph -999.0 mph 68 % 0 in
10:24 49.8 °F 39.3 °F 23.54 in NW 4.7 mph -999.0 mph 67 % 0 in
10:39 51.4 °F 39.2 °F 23.54 in NW 3.7 mph -999.0 mph 63 % 0 in
10:54 51.1 °F 39.7 °F 23.54 in West 2.2 mph -999.0 mph 65 % 0 in
11:10 50.9 °F 39.6 °F 23.54 in WNW 1.1 mph -999.0 mph 65 % 0 in
11:25 51.3 °F 39.9 °F 23.54 in NNW 6.3 mph -999.0 mph 65 % 0 in
11:40 50.9 °F 39.9 °F 23.54 in NE 1.1 mph -999.0 mph 66 % 0 in
11:55 52.5 °F 40.7 °F 23.53 in NW 3.2 mph -999.0 mph 64 % 0 in
12:10 53.1 °F 40.4 °F 23.53 in West 2.7 mph -999.0 mph 62 % 0 in
12:26 52.2 °F 40.8 °F 23.53 in NW 5.3 mph -999.0 mph 65 % 0 in
12:41 50.9 °F 40.3 °F 23.52 in NNW 4.7 mph -999.0 mph 67 % 0 in
12:56 51.3 °F 40.3 °F 23.52 in Calm   -999.0 mph 66 % 0 in
13:12 50.7 °F 39.8 °F 23.52 in SW 1.7 mph -999.0 mph 66 % 0 in
13:27 51.3 °F 40.3 °F 23.52 in NNE 3.7 mph -999.0 mph 66 % 0 in
13:42 50.5 °F 40.0 °F 23.52 in North 2.7 mph -999.0 mph 67 % 0 in
13:57 50.5 °F 40.0 °F 23.52 in North 4.2 mph -999.0 mph 67 % 0 in
14:12 50.9 °F 40.7 °F 23.52 in WNW 1.1 mph -999.0 mph 68 % 0 in
14:28 50.5 °F 40.3 °F 23.52 in NW 1.7 mph -999.0 mph 68 % 0 in
14:43 50.0 °F 39.9 °F 23.52 in NNW 5.8 mph -999.0 mph 68 % 0 in
14:59 49.6 °F 39.5 °F 23.53 in WSW 4.7 mph -999.0 mph 68 % 0 in
15:14 48.9 °F 39.5 °F 23.52 in NW 4.2 mph -999.0 mph 70 % 0 in
15:29 48.6 °F 39.6 °F 23.52 in NE 2.2 mph -999.0 mph 71 % 0 in
15:44 48.2 °F 39.6 °F 23.52 in NNE 9.4 mph -999.0 mph 72 % 0 in
16:00 48.2 °F 40.0 °F 23.52 in SW 2.2 mph -999.0 mph 73 % 0 in
16:15 47.8 °F 39.6 °F 23.52 in NNE 2.7 mph -999.0 mph 73 % 0 in
16:30 46.8 °F 39.3 °F 23.52 in WSW 2.2 mph -999.0 mph 75 % 0 in
16:45 46.2 °F 39.1 °F 23.52 in NW 2.2 mph -999.0 mph 76 % 0 in
17:01 45.7 °F 39.2 °F 23.52 in West 1.1 mph -999.0 mph 78 % 0 in
17:16 45.9 °F 39.8 °F 23.53 in ENE 2.7 mph -999.0 mph 79 % 0 in
17:31 45.9 °F 39.8 °F 23.53 in WNW 1.7 mph -999.0 mph 79 % 0 in
17:46 45.3 °F 39.2 °F 23.54 in NW 2.7 mph -999.0 mph 79 % 0 in
18:01 45.0 °F 39.5 °F 23.54 in ESE 1.1 mph -999.0 mph 81 % 0 in
18:17 44.8 °F 39.6 °F 23.54 in Calm   -999.0 mph 82 % 0 in
18:32 44.4 °F 39.6 °F 23.53 in SW 2.2 mph -999.0 mph 83 % 0 in
19:02 44.6 °F 40.1 °F 23.54 in NNW 2.2 mph -999.0 mph 84 % 0 in
19:18 45.0 °F 40.1 °F 23.54 in East 1.1 mph -999.0 mph 83 % 0 in
19:33 45.0 °F 39.8 °F 23.54 in WSW 1.7 mph -999.0 mph 82 % 0 in
19:48 44.8 °F 39.6 °F 23.54 in SSE 1.1 mph -999.0 mph 82 % 0 in
20:03 44.4 °F 39.3 °F 23.55 in SSW 4.2 mph -999.0 mph 82 % 0 in
20:18 44.2 °F 39.1 °F 23.55 in West 1.7 mph -999.0 mph 82 % 0 in
20:34 44.4 °F 39.9 °F 23.55 in SW 2.2 mph -999.0 mph 84 % 0 in
20:49 44.6 °F 40.1 °F 23.55 in WSW 1.1 mph -999.0 mph 84 % 0 in
21:05 44.8 °F 40.6 °F 23.56 in SSW 3.7 mph -999.0 mph 85 % 0 in
21:20 45.1 °F 40.9 °F 23.56 in NW 2.2 mph -999.0 mph 85 % 0 in
21:35 44.8 °F 40.6 °F 23.56 in Calm   -999.0 mph 85 % 0 in
21:50 45.3 °F 41.1 °F 23.55 in SW 1.7 mph -999.0 mph 85 % 0 in
22:05 45.1 °F 40.9 °F 23.56 in South 1.7 mph -999.0 mph 85 % 0 in
22:21 45.3 °F 41.1 °F 23.55 in Calm   -999.0 mph 85 % 0 in
22:36 45.3 °F 41.1 °F 23.55 in Calm   -999.0 mph 85 % 0 in
22:51 45.0 °F 40.8 °F 23.55 in Calm   -999.0 mph 85 % 0 in
23:06 44.6 °F 40.7 °F 23.55 in Calm   -999.0 mph 86 % 0 in
23:22 44.1 °F 40.2 °F 23.55 in NNW 3.7 mph -999.0 mph 86 % 0 in
23:37 44.1 °F 40.5 °F 23.55 in NW 2.2 mph -999.0 mph 87 % 0 in
Big Bear CA Weather
Compliments of Weather Underground - 1.5 mb